Time;durP1;ratioP1;P1;durP2;ratioP2;P2;SDS_P1;SDS_P2;PMS_P1;PMS_P2;Temp;Humidity;BMP_temperature;BMP_pressure;BME280_temperature;BME280_humidity;BME280_pressure;Samples;Min_cycle;Max_cycle;Signal;HPM_P1;HPM_P2
2022/03/25 00:01:38;;;;;;;119.30;88.93;;;4.20;99.90;;;;;;4997816;28;90441;-35
2022/03/25 00:04:04;;;;;;;119.78;89.05;;;4.20;99.90;;;;;;4998731;28;89879;-39
2022/03/25 00:06:30;;;;;;;110.25;88.65;;;4.20;99.90;;;;;;4998709;28;90393;-34
2022/03/25 00:08:56;;;;;;;121.30;87.18;;;4.20;99.90;;;;;;4997128;28;88745;-34
2022/03/25 00:11:21;;;;;;;110.63;84.15;;;4.30;99.90;;;;;;4998197;28;96846;-34
2022/03/25 00:13:47;;;;;;;104.10;83.10;;;4.20;99.90;;;;;;4997501;28;89765;-33
2022/03/25 00:18:51;;;;;;;116.60;85.50;;;4.10;99.90;;;;;;4997124;28;90300;-33
2022/03/25 00:21:17;;;;;;;108.90;83.43;;;4.10;99.90;;;;;;4997405;28;89258;-34
2022/03/25 00:23:42;;;;;;;110.30;81.18;;;4.10;99.90;;;;;;4997700;28;92458;-38
2022/03/25 00:26:08;;;;;;;108.25;82.30;;;4.10;99.90;;;;;;4998903;28;89768;-34
2022/03/25 00:28:33;;;;;;;111.63;88.57;;;4.10;99.90;;;;;;4998155;28;89143;-38
2022/03/25 00:30:59;;;;;;;104.38;82.55;;;4.10;99.90;;;;;;4999865;28;91451;-33
2022/03/25 00:33:24;;;;;;;105.05;82.88;;;4.10;99.90;;;;;;5000455;28;91430;-33
2022/03/25 00:35:50;;;;;;;112.63;83.00;;;4.10;99.90;;;;;;5001042;28;91763;-35
2022/03/25 00:38:16;;;;;;;106.35;81.43;;;4.10;99.90;;;;;;5001676;28;89837;-34
2022/03/25 00:40:43;;;;;;;102.10;77.45;;;4.10;99.90;;;;;;5001594;28;90163;-33
2022/03/25 00:43:09;;;;;;;111.57;82.72;;;4.00;99.90;;;;;;5001559;28;90688;-34
2022/03/25 00:45:35;;;;;;;101.85;75.65;;;4.00;99.90;;;;;;5000559;28;89364;-35
2022/03/25 00:48:01;;;;;;;112.55;80.63;;;4.10;99.90;;;;;;5001823;28;89013;-34
2022/03/25 00:50:27;;;;;;;108.18;79.40;;;4.00;99.90;;;;;;5001489;28;90424;-33
2022/03/25 00:52:52;;;;;;;119.35;79.38;;;4.00;99.90;;;;;;5000793;28;91590;-38
2022/03/25 00:55:19;;;;;;;112.05;76.38;;;3.90;99.90;;;;;;5001858;28;89762;-34
2022/03/25 00:57:45;;;;;;;107.63;76.03;;;3.90;99.90;;;;;;5000356;28;90450;-34
2022/03/25 01:00:11;;;;;;;97.78;69.95;;;3.80;99.90;;;;;;5001012;28;90032;-38
2022/03/25 01:02:36;;;;;;;101.68;76.40;;;3.70;99.90;;;;;;5000798;28;89409;-36
2022/03/25 01:05:02;;;;;;;98.22;73.88;;;3.70;99.90;;;;;;5001027;28;89523;-37
2022/03/25 01:07:28;;;;;;;97.53;77.90;;;3.70;99.90;;;;;;5001568;28;87875;-37
2022/03/25 01:09:53;;;;;;;89.45;69.32;;;3.70;99.90;;;;;;5000185;28;89801;-35
2022/03/25 01:12:21;;;;;;;114.35;80.30;;;3.80;99.90;;;;;;5001461;28;89551;-33
2022/03/25 01:14:47;;;;;;;115.57;76.63;;;3.80;99.90;;;;;;5001485;28;89287;-34
2022/03/25 01:17:13;;;;;;;103.97;69.85;;;3.70;99.90;;;;;;4999846;28;87666;-35
2022/03/25 01:19:38;;;;;;;112.97;76.65;;;3.70;99.90;;;;;;5000966;28;90586;-35
2022/03/25 01:22:05;;;;;;;125.18;71.15;;;3.70;99.90;;;;;;5000461;28;91826;-36
2022/03/25 01:24:32;;;;;;;106.60;70.55;;;3.60;99.90;;;;;;5000383;28;90503;-38
2022/03/25 01:26:59;;;;;;;100.17;72.20;;;3.60;99.90;;;;;;5001262;28;88707;-34
2022/03/25 01:29:24;;;;;;;93.75;72.60;;;3.60;99.90;;;;;;5000242;28;90308;-36
2022/03/25 01:31:50;;;;;;;112.75;74.13;;;3.60;99.90;;;;;;5000517;28;89571;-36
2022/03/25 01:34:16;;;;;;;103.18;75.50;;;3.60;99.90;;;;;;5000765;28;90097;-32
2022/03/25 01:36:41;;;;;;;108.88;74.65;;;3.50;99.90;;;;;;4999687;28;89218;-33
2022/03/25 01:39:07;;;;;;;106.30;74.63;;;3.50;99.90;;;;;;5000651;28;90253;-36
2022/03/25 01:41:32;;;;;;;106.07;70.93;;;3.50;99.90;;;;;;5000369;28;89617;-36
2022/03/25 01:44:01;;;;;;;104.25;74.70;;;3.50;99.90;;;;;;4999336;28;89254;-36
2022/03/25 01:46:26;;;;;;;100.93;75.72;;;3.50;99.90;;;;;;5000419;28;90116;-34
2022/03/25 01:48:53;;;;;;;111.40;73.65;;;3.50;99.90;;;;;;4999755;28;90172;-36
2022/03/25 01:51:29;;;;;;;106.85;77.07;;;3.50;99.90;;;;;;5000181;28;89607;-34
2022/03/25 01:54:00;;;;;;;119.97;78.82;;;3.50;99.90;;;;;;4999932;28;89818;-34
2022/03/25 01:56:26;;;;;;;133.23;83.43;;;3.50;99.90;;;;;;5000556;28;89631;-36
2022/03/25 01:58:52;;;;;;;152.27;84.72;;;3.60;99.90;;;;;;4999744;28;89920;-32
2022/03/25 02:01:17;;;;;;;113.88;79.40;;;3.70;99.90;;;;;;4999511;28;89636;-36
2022/03/25 02:03:46;;;;;;;112.80;81.78;;;3.70;99.90;;;;;;4999831;28;90001;-33
2022/03/25 02:06:12;;;;;;;132.60;82.93;;;3.70;99.90;;;;;;5000451;28;88160;-32
2022/03/25 02:08:37;;;;;;;120.63;81.35;;;3.60;99.90;;;;;;4999471;28;88710;-33
2022/03/25 02:11:04;;;;;;;121.38;79.70;;;3.60;99.90;;;;;;5000124;28;90448;-33
2022/03/25 02:13:30;;;;;;;107.72;78.38;;;3.60;99.90;;;;;;4999675;28;90521;-34
2022/03/25 02:15:55;;;;;;;116.50;84.10;;;3.60;99.90;;;;;;4999637;28;90066;-34
2022/03/25 02:18:22;;;;;;;134.90;81.03;;;3.60;99.90;;;;;;4999335;28;90193;-33
2022/03/25 02:20:49;;;;;;;123.40;79.93;;;3.60;99.90;;;;;;4999146;28;89830;-38
2022/03/25 02:23:15;;;;;;;103.40;72.45;;;3.60;99.90;;;;;;4999527;28;89587;-35
2022/03/25 02:25:42;;;;;;;101.10;73.10;;;3.60;99.90;;;;;;4999836;28;87829;-34
2022/03/25 02:28:08;;;;;;;117.53;73.47;;;3.60;99.90;;;;;;4999441;28;89237;-36
2022/03/25 02:30:35;;;;;;;110.10;76.70;;;3.60;99.90;;;;;;4999838;28;89706;-39
2022/03/25 02:33:02;;;;;;;95.25;72.93;;;3.60;99.90;;;;;;4999932;28;89814;-33
2022/03/25 02:35:45;;;;;;;90.75;73.07;;;3.60;99.90;;;;;;4998668;28;88735;-37
2022/03/25 02:38:13;;;;;;;140.07;72.20;;;3.60;99.90;;;;;;4999582;28;90149;-34
2022/03/25 02:40:40;;;;;;;169.45;73.60;;;3.50;99.90;;;;;;4999292;28;89600;-33
2022/03/25 02:43:06;;;;;;;125.05;73.30;;;3.40;99.90;;;;;;4999534;28;89378;-35
2022/03/25 02:45:32;;;;;;;119.90;70.30;;;3.40;99.90;;;;;;4999226;28;89047;-34
2022/03/25 02:47:59;;;;;;;221.63;74.13;;;3.40;99.90;;;;;;4998936;28;92112;-33
2022/03/25 02:50:25;;;;;;;97.00;65.97;;;3.40;99.90;;;;;;4999228;28;89305;-35
2022/03/25 02:52:50;;;;;;;84.75;62.85;;;3.40;99.90;;;;;;4999723;28;88601;-34
2022/03/25 02:55:16;;;;;;;83.82;63.00;;;3.30;99.90;;;;;;4999496;28;89636;-36
2022/03/25 02:57:42;;;;;;;116.32;63.95;;;3.40;99.90;;;;;;4998744;28;89951;-38
2022/03/25 03:00:09;;;;;;;94.30;59.95;;;3.30;99.90;;;;;;4998918;28;90618;-34
2022/03/25 03:02:36;;;;;;;93.90;62.90;;;3.30;99.90;;;;;;4999293;28;90502;-38
2022/03/25 03:05:02;;;;;;;166.05;67.63;;;3.30;99.90;;;;;;4998428;28;88829;-36
2022/03/25 03:07:29;;;;;;;105.60;65.50;;;3.30;99.90;;;;;;4999420;28;90002;-34
2022/03/25 03:09:54;;;;;;;198.18;69.57;;;3.20;99.90;;;;;;4998906;28;90144;-36
2022/03/25 03:12:20;;;;;;;167.52;67.10;;;3.20;99.90;;;;;;4999225;28;89654;-35
2022/03/25 03:14:47;;;;;;;137.88;63.72;;;3.20;99.90;;;;;;4999063;28;88381;-32
2022/03/25 03:17:13;;;;;;;127.55;63.05;;;3.20;99.90;;;;;;4998539;28;90452;-34
2022/03/25 03:19:39;;;;;;;145.27;63.53;;;3.10;99.90;;;;;;4998818;28;89485;-34
2022/03/25 03:22:05;;;;;;;112.85;65.00;;;3.10;99.90;;;;;;4999228;28;89953;-34
2022/03/25 03:24:30;;;;;;;141.73;69.22;;;3.00;99.90;;;;;;4998150;28;89844;-35
2022/03/25 03:26:57;;;;;;;150.48;68.50;;;3.00;99.90;;;;;;4998882;28;90121;-34
2022/03/25 03:29:24;;;;;;;86.95;64.70;;;3.00;99.90;;;;;;4998353;28;89657;-36
2022/03/25 03:31:49;;;;;;;107.18;69.15;;;2.90;99.90;;;;;;4998347;28;89564;-33
2022/03/25 03:34:15;;;;;;;103.32;64.85;;;2.90;99.90;;;;;;4998759;28;89730;-34
2022/03/25 03:36:41;;;;;;;109.82;68.15;;;2.90;99.90;;;;;;4998632;28;89219;-34
2022/03/25 03:39:06;;;;;;;95.25;63.35;;;2.90;99.90;;;;;;4998873;28;90297;-33
2022/03/25 03:41:32;;;;;;;95.95;65.22;;;2.80;99.90;;;;;;4998506;28;89449;-34
2022/03/25 03:43:57;;;;;;;99.50;64.35;;;2.70;99.90;;;;;;4999207;28;89145;-33
2022/03/25 03:46:23;;;;;;;96.20;62.22;;;2.80;99.90;;;;;;4998728;28;90311;-33
2022/03/25 03:48:50;;;;;;;81.35;61.25;;;2.70;99.90;;;;;;4998619;28;91117;-34
2022/03/25 03:51:16;;;;;;;101.15;66.63;;;2.70;99.90;;;;;;4998934;28;91182;-36
2022/03/25 03:53:41;;;;;;;76.22;62.00;;;2.60;99.90;;;;;;4998142;28;89202;-34
2022/03/25 03:56:07;;;;;;;94.50;64.75;;;2.60;99.90;;;;;;4998721;28;90016;-39
2022/03/25 03:58:32;;;;;;;106.38;63.72;;;2.60;99.90;;;;;;4998551;28;90659;-34
2022/03/25 04:00:58;;;;;;;134.77;72.32;;;2.60;99.90;;;;;;4998582;28;89712;-37
2022/03/25 04:03:23;;;;;;;119.85;65.93;;;2.50;99.90;;;;;;4999720;28;89816;-35
2022/03/25 04:05:49;;;;;;;82.72;62.60;;;2.50;99.90;;;;;;4998164;28;90297;-34
2022/03/25 04:08:15;;;;;;;78.13;63.53;;;2.40;99.90;;;;;;5002482;28;91165;-34
2022/03/25 04:10:41;;;;;;;78.07;62.42;;;2.50;99.90;;;;;;5000754;28;90122;-37
2022/03/25 04:13:07;;;;;;;147.90;66.43;;;2.50;99.90;;;;;;5001861;28;90129;-34
2022/03/25 04:15:33;;;;;;;108.75;63.60;;;2.50;99.90;;;;;;5002574;28;90186;-33
2022/03/25 04:17:59;;;;;;;81.20;65.20;;;2.50;99.90;;;;;;5000801;28;89921;-37
2022/03/25 04:20:25;;;;;;;95.75;63.05;;;2.40;99.90;;;;;;5001540;28;89327;-34
2022/03/25 04:22:51;;;;;;;98.20;60.83;;;2.40;99.90;;;;;;5001472;28;89674;-33
2022/03/25 04:25:16;;;;;;;78.93;62.00;;;2.40;99.90;;;;;;5002054;28;93449;-34
2022/03/25 04:27:53;;;;;;;92.30;61.70;;;2.30;99.90;;;;;;5002157;28;89584;-34
2022/03/25 04:30:24;;;;;;;82.40;60.53;;;2.30;99.90;;;;;;5000952;28;89617;-37
2022/03/25 04:32:50;;;;;;;84.63;58.92;;;2.20;99.90;;;;;;5001425;28;89892;-33
2022/03/25 04:35:16;;;;;;;76.68;55.22;;;2.20;99.90;;;;;;5001187;28;89379;-36
2022/03/25 04:37:42;;;;;;;86.50;58.67;;;2.20;99.90;;;;;;5000844;28;90296;-34
2022/03/25 04:40:09;;;;;;;86.60;59.70;;;2.20;99.90;;;;;;5001057;28;89292;-35
2022/03/25 04:42:35;;;;;;;85.70;54.15;;;2.20;99.90;;;;;;5000601;28;89275;-35
2022/03/25 04:45:01;;;;;;;74.10;56.92;;;2.20;99.90;;;;;;5001592;28;90081;-36
2022/03/25 04:47:26;;;;;;;66.32;54.63;;;2.10;99.90;;;;;;5001417;28;89646;-33
2022/03/25 04:49:52;;;;;;;82.40;55.35;;;2.10;99.90;;;;;;5001579;28;90343;-34
2022/03/25 04:52:18;;;;;;;75.45;54.92;;;2.00;99.90;;;;;;5001236;28;88389;-35
2022/03/25 04:54:43;;;;;;;90.90;56.85;;;2.00;99.90;;;;;;5001368;28;90072;-35
2022/03/25 04:57:09;;;;;;;67.43;54.05;;;2.00;99.90;;;;;;5001420;28;90366;-33
2022/03/25 04:59:34;;;;;;;66.57;52.97;;;1.90;99.90;;;;;;5000563;28;89718;-37
2022/03/25 05:02:01;;;;;;;70.10;53.17;;;1.80;99.90;;;;;;5000963;28;88256;-36
2022/03/25 05:04:27;;;;;;;67.32;50.10;;;1.80;99.90;;;;;;5000607;28;91504;-36
2022/03/25 05:06:53;;;;;;;59.50;50.28;;;1.80;99.90;;;;;;5000351;28;90356;-36
2022/03/25 05:09:18;;;;;;;66.60;52.33;;;1.80;99.90;;;;;;5001211;28;89744;-33
2022/03/25 05:11:44;;;;;;;77.28;55.17;;;1.70;99.90;;;;;;5000275;28;88644;-34
2022/03/25 05:14:10;;;;;;;58.17;48.90;;;1.80;99.90;;;;;;5001074;28;90540;-33
2022/03/25 05:16:36;;;;;;;66.95;50.80;;;1.80;99.90;;;;;;4999495;28;89776;-34
2022/03/25 05:19:02;;;;;;;59.15;49.22;;;1.70;99.90;;;;;;4999876;28;90445;-38
2022/03/25 05:21:28;;;;;;;67.70;51.22;;;1.60;99.90;;;;;;5001007;28;88160;-33
2022/03/25 05:23:54;;;;;;;59.05;45.42;;;1.60;99.90;;;;;;5000524;28;91067;-36
2022/03/25 05:26:20;;;;;;;69.50;51.45;;;1.60;99.90;;;;;;5000740;28;90198;-33
2022/03/25 05:28:46;;;;;;;56.83;47.35;;;1.60;99.90;;;;;;4999991;28;90176;-35
2022/03/25 05:31:12;;;;;;;58.40;49.60;;;1.60;99.90;;;;;;5000808;28;90241;-33
2022/03/25 05:33:37;;;;;;;183.15;62.25;;;1.70;99.90;;;;;;5001247;28;90789;-34
2022/03/25 05:36:04;;;;;;;68.65;51.95;;;1.60;99.90;;;;;;5000070;28;89645;-33
2022/03/25 05:38:30;;;;;;;105.93;51.88;;;1.70;99.90;;;;;;5000677;28;89680;-35
2022/03/25 05:40:56;;;;;;;161.95;59.47;;;1.60;99.90;;;;;;5000055;28;90226;-34
2022/03/25 05:43:21;;;;;;;75.45;53.58;;;1.70;99.90;;;;;;5000093;28;89017;-35
2022/03/25 05:45:48;;;;;;;134.65;57.47;;;1.70;99.90;;;;;;5000688;28;89790;-34
2022/03/25 05:48:13;;;;;;;189.38;62.78;;;1.80;99.90;;;;;;4999845;28;89541;-37
2022/03/25 05:50:39;;;;;;;71.88;53.70;;;1.80;99.90;;;;;;4999871;28;89457;-34
2022/03/25 05:53:05;;;;;;;68.22;53.33;;;1.90;99.90;;;;;;5000564;28;90457;-36
2022/03/25 05:55:32;;;;;;;111.78;56.33;;;1.90;99.90;;;;;;5000312;28;89512;-36
2022/03/25 05:57:57;;;;;;;75.45;54.08;;;1.90;99.90;;;;;;4999945;28;90508;-34
2022/03/25 06:00:23;;;;;;;74.40;51.47;;;2.00;99.90;;;;;;5000232;28;88279;-35
2022/03/25 06:02:49;;;;;;;83.78;51.40;;;2.00;99.90;;;;;;5000253;28;90324;-35
2022/03/25 06:05:15;;;;;;;97.25;53.33;;;2.10;99.90;;;;;;4999706;28;88613;-34
2022/03/25 06:07:45;;;;;;;69.95;53.42;;;2.20;99.90;;;;;;4999878;28;89666;-34
2022/03/25 06:10:13;;;;;;;69.68;49.75;;;2.10;99.90;;;;;;4999810;28;88195;-34
2022/03/25 06:12:39;;;;;;;71.18;50.00;;;2.20;99.90;;;;;;4999500;28;90035;-34
2022/03/25 06:15:06;;;;;;;158.48;58.40;;;2.20;99.90;;;;;;4999344;28;90328;-34
2022/03/25 06:17:32;;;;;;;152.90;61.60;;;2.10;99.90;;;;;;4999289;28;91085;-34
2022/03/25 06:19:58;;;;;;;181.27;62.85;;;2.20;99.90;;;;;;4999545;28;89272;-37
2022/03/25 06:22:24;;;;;;;64.68;50.67;;;2.20;99.90;;;;;;4999967;28;92165;-33
2022/03/25 06:24:52;;;;;;;112.85;57.25;;;2.30;99.90;;;;;;4999305;28;89645;-33
2022/03/25 06:27:18;;;;;;;63.70;51.08;;;2.30;99.90;;;;;;4999693;28;89438;-34
2022/03/25 06:29:43;;;;;;;62.20;51.33;;;2.30;99.90;;;;;;4999103;28;88342;-33
2022/03/25 06:32:09;;;;;;;61.88;50.15;;;2.40;99.90;;;;;;4999518;28;90217;-34
2022/03/25 06:34:34;;;;;;;59.65;49.55;;;2.40;99.90;;;;;;5000236;28;89945;-37
2022/03/25 06:37:01;;;;;;;60.67;47.75;;;2.50;99.90;;;;;;4999412;28;89172;-37
2022/03/25 06:39:27;;;;;;;61.08;48.88;;;2.60;99.90;;;;;;4998904;28;90183;-35
2022/03/25 06:41:52;;;;;;;63.60;50.45;;;2.70;99.90;;;;;;4999116;28;90734;-35
2022/03/25 06:44:19;;;;;;;65.45;52.03;;;2.80;99.90;;;;;;4998842;28;89758;-35
2022/03/25 06:46:45;;;;;;;72.18;54.40;;;2.90;99.90;;;;;;4999460;28;89961;-36
2022/03/25 06:49:11;;;;;;;59.28;50.45;;;3.00;99.90;;;;;;4999257;28;89137;-34
2022/03/25 06:51:37;;;;;;;70.43;55.13;;;3.20;99.90;;;;;;4998954;28;90120;-34
2022/03/25 06:54:02;;;;;;;67.40;54.90;;;3.40;99.90;;;;;;4999329;28;89739;-31
2022/03/25 06:56:28;;;;;;;69.03;58.78;;;3.60;99.90;;;;;;4999406;28;89916;-35
2022/03/25 06:58:55;;;;;;;68.00;56.42;;;3.80;99.90;;;;;;4982055;28;89692;-37
2022/03/25 07:01:21;;;;;;;82.95;62.83;;;3.80;99.90;;;;;;4999271;28;91679;-34
2022/03/25 07:03:47;;;;;;;72.88;56.75;;;3.80;99.90;;;;;;4997849;28;90645;-33
2022/03/25 07:06:16;;;;;;;76.78;60.97;;;3.90;99.90;;;;;;4999169;28;91106;-35
2022/03/25 07:08:45;;;;;;;78.78;61.40;;;4.00;99.90;;;;;;4999556;28;88042;-33
2022/03/25 07:11:11;;;;;;;;;;;4.10;99.90;;;;;;5000040;28;90135;-33
2022/03/25 07:13:37;;;;;;;81.40;58.20;;;4.30;99.90;;;;;;5000834;28;90603;-34
2022/03/25 07:16:03;;;;;;;71.43;58.05;;;4.50;99.90;;;;;;4999036;28;91382;-33
2022/03/25 07:18:28;;;;;;;81.75;60.20;;;4.60;99.90;;;;;;4998532;28;88736;-37
2022/03/25 07:20:58;;;;;;;77.85;62.63;;;4.80;99.90;;;;;;4998403;28;90708;-37
2022/03/25 07:23:23;;;;;;;76.32;60.97;;;4.90;99.90;;;;;;4998837;28;90936;-36
2022/03/25 07:25:49;;;;;;;77.43;60.28;;;5.10;99.90;;;;;;4998463;28;95850;-33
2022/03/25 07:28:14;;;;;;;75.53;62.15;;;5.20;99.90;;;;;;4998169;28;90524;-36
2022/03/25 07:30:41;;;;;;;75.90;61.35;;;5.30;99.90;;;;;;4920275;27;90177;-33
2022/03/25 07:33:06;;;;;;;76.90;61.20;;;5.40;99.90;;;;;;4997901;28;89742;-34
2022/03/25 07:35:32;;;;;;;83.40;59.20;;;5.70;99.90;;;;;;4998984;28;90147;-34
2022/03/25 07:37:57;;;;;;;84.40;64.82;;;5.60;99.90;;;;;;4998852;28;88369;-35
2022/03/25 07:40:23;;;;;;;84.82;62.55;;;5.70;99.90;;;;;;4997466;28;90223;-35
2022/03/25 07:42:49;;;;;;;72.18;58.97;;;5.70;99.90;;;;;;4998690;28;89659;-35
2022/03/25 07:45:15;;;;;;;81.72;59.55;;;5.80;99.90;;;;;;4997233;28;88509;-35
2022/03/25 07:47:45;;;;;;;75.55;57.30;;;5.80;99.90;;;;;;4999078;28;89819;-36
2022/03/25 07:50:13;;;;;;;77.60;61.45;;;6.10;99.90;;;;;;4999105;28;90358;-34
2022/03/25 07:52:40;;;;;;;88.03;64.85;;;6.40;99.90;;;;;;4997549;28;90676;-35
2022/03/25 07:55:06;;;;;;;86.07;61.72;;;6.70;99.90;;;;;;4998044;28;91711;-34
2022/03/25 07:57:34;;;;;;;80.80;60.72;;;7.00;99.90;;;;;;4998646;28;90574;-38
2022/03/25 08:00:00;;;;;;;81.80;63.95;;;7.00;99.90;;;;;;4998631;28;90819;-33
2022/03/25 08:02:26;;;;;;;85.57;65.43;;;7.30;99.90;;;;;;4998346;28;89257;-35
2022/03/25 08:04:51;;;;;;;77.25;61.45;;;7.50;99.90;;;;;;4997546;28;89687;-35
2022/03/25 08:07:18;;;;;;;83.43;61.00;;;7.50;99.90;;;;;;4998503;28;90093;-33
2022/03/25 08:09:44;;;;;;;78.03;57.67;;;7.70;99.90;;;;;;4998050;28;90314;-34
2022/03/25 08:12:10;;;;;;;78.45;57.00;;;7.70;99.90;;;;;;4998541;28;89536;-34
2022/03/25 08:14:35;;;;;;;70.85;53.80;;;8.00;99.90;;;;;;4998028;28;90212;-37
2022/03/25 08:17:01;;;;;;;73.05;54.28;;;8.30;99.90;;;;;;4996769;28;89866;-37
2022/03/25 08:19:26;;;;;;;77.32;59.97;;;8.20;99.90;;;;;;4998671;28;90188;-34
2022/03/25 08:21:52;;;;;;;74.57;53.05;;;8.40;99.90;;;;;;4997243;28;89643;-33
2022/03/25 08:29:46;;;;;;;74.28;55.03;;;8.80;99.90;;;;;;4998002;28;90298;-34
2022/03/25 08:32:12;;;;;;;71.30;52.80;;;9.00;99.90;;;;;;4997811;28;89643;-35
2022/03/25 08:34:38;;;;;;;74.65;55.30;;;9.00;99.90;;;;;;4996141;28;89720;-37
2022/03/25 08:37:03;;;;;;;74.22;53.17;;;9.20;99.90;;;;;;4998222;28;89169;-33
2022/03/25 08:39:29;;;;;;;63.90;48.28;;;9.20;99.90;;;;;;4979309;28;89990;-35
2022/03/25 08:41:54;;;;;;;68.22;50.67;;;9.40;99.90;;;;;;4996910;28;90507;-37
2022/03/25 08:44:20;;;;;;;74.22;52.85;;;9.40;99.90;;;;;;4997483;28;90788;-34
2022/03/25 08:46:46;;;;;;;68.45;49.40;;;9.70;99.90;;;;;;4997688;28;89566;-38
2022/03/25 08:49:11;;;;;;;69.82;49.75;;;9.80;99.90;;;;;;4997952;28;89247;-36
2022/03/25 08:51:37;;;;;;;61.47;45.67;;;10.20;99.90;;;;;;4997472;28;89594;-38
2022/03/25 08:54:03;;;;;;;62.10;44.53;;;10.10;99.90;;;;;;5000835;28;88783;-35
2022/03/25 08:56:29;;;;;;;61.75;46.33;;;10.20;99.90;;;;;;5000468;28;87645;-34
2022/03/25 08:58:58;;;;;;;57.72;43.13;;;10.30;99.90;;;;;;5001328;28;90184;-35
2022/03/25 09:01:24;;;;;;;63.97;45.70;;;10.50;99.90;;;;;;5000838;28;89643;-34
2022/03/25 09:03:49;;;;;;;60.63;42.55;;;10.70;99.90;;;;;;5000892;28;89543;-34
2022/03/25 09:06:15;;;;;;;60.35;43.28;;;10.80;99.90;;;;;;5000379;28;89719;-33
2022/03/25 09:08:41;;;;;;;67.13;41.50;;;10.70;99.90;;;;;;5000716;28;90308;-37
2022/03/25 09:11:06;;;;;;;54.90;42.70;;;10.90;99.90;;;;;;5000737;28;90149;-34
2022/03/25 09:13:32;;;;;;;55.70;42.17;;;11.20;99.90;;;;;;5001130;28;89461;-34
2022/03/25 09:15:58;;;;;;;54.20;41.00;;;11.60;99.90;;;;;;5000738;28;87694;-35
2022/03/25 09:18:23;;;;;;;58.47;42.15;;;11.40;99.90;;;;;;5001113;28;90023;-34
2022/03/25 09:20:49;;;;;;;56.53;36.95;;;11.40;99.90;;;;;;5000034;28;89855;-34
2022/03/25 09:23:15;;;;;;;54.55;40.75;;;11.60;99.90;;;;;;5000542;28;90332;-37
2022/03/25 09:25:41;;;;;;;56.65;40.00;;;11.40;99.90;;;;;;5001205;28;89405;-36
2022/03/25 09:28:08;;;;;;;55.10;41.15;;;11.70;99.90;;;;;;5000648;28;90463;-32
2022/03/25 09:30:34;;;;;;;56.47;39.27;;;11.80;99.90;;;;;;4999858;28;89263;-33
2022/03/25 09:33:00;;;;;;;52.47;35.78;;;12.00;99.90;;;;;;5000479;28;90567;-34
2022/03/25 09:35:26;;;;;;;51.38;39.42;;;12.00;99.90;;;;;;5000344;28;88517;-34
2022/03/25 09:37:52;;;;;;;59.88;40.47;;;12.30;99.90;;;;;;5000798;28;89914;-37
2022/03/25 09:40:26;;;;;;;58.97;39.05;;;12.40;99.90;;;;;;5000263;28;91324;-33
2022/03/25 09:42:55;;;;;;;48.83;37.75;;;12.40;99.90;;;;;;5000022;28;89621;-37
2022/03/25 09:45:23;;;;;;;49.88;36.58;;;12.50;99.90;;;;;;5000556;28;90401;-36
2022/03/25 09:47:49;;;;;;;48.95;36.22;;;12.60;99.90;;;;;;5000508;28;89283;-34
2022/03/25 09:50:17;;;;;;;47.72;34.47;;;12.70;99.90;;;;;;5000585;28;89864;-37
2022/03/25 09:52:43;;;;;;;;;;;12.70;99.90;;;;;;5000214;28;89441;-34
2022/03/25 09:55:10;;;;;;;47.00;34.80;;;12.50;87.60;;;;;;5001820;28;89214;-37
2022/03/25 09:57:37;;;;;;;44.50;34.03;;;12.70;97.80;;;;;;4999707;28;90217;-36
2022/03/25 10:00:04;;;;;;;52.75;35.80;;;12.90;97.00;;;;;;4999212;28;89561;-34
2022/03/25 10:02:30;;;;;;;54.67;35.88;;;13.00;99.90;;;;;;5000162;28;89639;-37
2022/03/25 10:04:56;;;;;;;45.97;34.35;;;13.10;89.80;;;;;;4999520;28;89213;-35
2022/03/25 10:07:27;;;;;;;50.88;36.75;;;13.30;94.30;;;;;;4999543;28;90585;-36
2022/03/25 10:10:13;;;;;;;48.42;34.35;;;13.30;73.90;;;;;;4999365;28;89748;-36
2022/03/25 10:12:40;;;;;;;48.67;34.47;;;13.40;90.20;;;;;;4999739;28;89610;-34
2022/03/25 10:15:16;;;;;;;54.10;36.80;;;13.40;90.70;;;;;;4999896;28;89033;-35
2022/03/25 10:17:50;;;;;;;47.08;35.17;;;13.40;93.90;;;;;;4998979;28;91240;-34
2022/03/25 10:20:17;;;;;;;48.13;32.40;;;13.70;91.20;;;;;;4998912;28;90707;-36
2022/03/25 10:23:02;;;;;;;49.72;34.80;;;13.90;78.50;;;;;;4999376;28;90795;-36
2022/03/25 10:25:42;;;;;;;51.65;34.45;;;13.80;84.40;;;;;;4999426;28;89030;-33
2022/03/25 10:28:20;;;;;;;54.92;35.47;;;14.00;80.40;;;;;;4999909;28;90250;-37
2022/03/25 10:30:50;;;;;;;52.55;36.55;;;14.10;78.80;;;;;;4998543;28;89973;-38
2022/03/25 10:33:23;;;;;;;48.22;32.70;;;14.00;80.80;;;;;;4999484;28;90454;-35
2022/03/25 10:35:59;;;;;;;48.47;32.20;;;14.10;75.70;;;;;;4999460;28;88735;-33
2022/03/25 10:38:26;;;;;;;44.88;31.90;;;14.40;70.30;;;;;;4999250;28;90264;-38
2022/03/25 10:40:55;;;;;;;50.90;31.35;;;14.70;73.90;;;;;;4999140;28;89823;-34
2022/03/25 10:43:21;;;;;;;;;;;14.60;68.70;;;;;;4999596;28;90006;-36
2022/03/25 10:45:47;;;;;;;46.58;33.83;;;14.30;68.70;;;;;;5001187;28;89590;-33
2022/03/25 10:48:17;;;;;;;54.40;30.33;;;14.60;68.30;;;;;;4999103;28;88962;-37
2022/03/25 10:50:58;;;;;;;36.80;28.05;;;14.80;65.00;;;;;;4998594;28;89967;-35
2022/03/25 10:53:27;;;;;;;40.45;28.52;;;15.10;66.20;;;;;;4999713;28;89418;-34
2022/03/25 10:56:03;;;;;;;43.80;28.95;;;15.00;63.60;;;;;;4998701;28;88448;-38
2022/03/25 10:58:29;;;;;;;39.47;27.30;;;15.10;66.00;;;;;;4999436;28;90087;-37
2022/03/25 11:00:55;;;;;;;38.83;29.33;;;15.10;63.10;;;;;;4999541;28;89809;-35
2022/03/25 11:03:22;;;;;;;43.47;29.42;;;15.20;65.10;;;;;;4999119;28;89774;-34
2022/03/25 11:05:49;;;;;;;45.47;30.53;;;15.40;66.10;;;;;;4998675;28;89981;-36
2022/03/25 11:08:14;;;;;;;43.95;28.83;;;15.30;65.30;;;;;;4999360;28;88790;-37
2022/03/25 11:10:40;;;;;;;37.33;26.83;;;15.40;63.40;;;;;;4998059;28;89851;-35
2022/03/25 11:13:06;;;;;;;41.83;26.30;;;15.50;62.40;;;;;;4998983;28;91457;-39
2022/03/25 11:15:32;;;;;;;39.15;28.25;;;15.30;63.30;;;;;;4998619;28;89174;-36
2022/03/25 11:17:58;;;;;;;39.55;27.85;;;15.60;63.50;;;;;;4997801;28;89833;-34
2022/03/25 11:20:28;;;;;;;43.42;27.60;;;15.70;61.30;;;;;;4999394;28;89828;-35
2022/03/25 11:23:16;;;;;;;38.25;24.98;;;15.30;60.10;;;;;;4998960;28;89753;-36
2022/03/25 11:25:54;;;;;;;38.05;27.27;;;15.70;62.30;;;;;;4981243;28;89115;-36
2022/03/25 11:28:31;;;;;;;44.30;28.05;;;15.60;61.70;;;;;;4998800;28;90125;-37
2022/03/25 11:30:59;;;;;;;45.90;30.15;;;15.70;59.70;;;;;;4998354;28;90228;-37
2022/03/25 11:33:25;;;;;;;;;;;16.00;62.30;;;;;;4998902;28;89611;-36
2022/03/25 11:36:15;;;;;;;40.53;29.65;;;15.80;60.30;;;;;;5000509;28;90170;-33
2022/03/25 11:38:42;;;;;;;39.35;27.50;;;16.00;61.50;;;;;;4998022;28;89975;-37
2022/03/25 11:41:25;;;;;;;49.63;29.55;;;16.20;59.50;;;;;;4998367;28;89738;-37
2022/03/25 11:44:16;;;;;;;43.08;27.98;;;16.10;60.10;;;;;;4997978;28;89610;-37
2022/03/25 11:46:59;;;;;;;34.70;27.45;;;16.10;59.60;;;;;;4998904;28;89599;-37
2022/03/25 11:49:30;;;;;;;38.88;27.15;;;16.30;61.10;;;;;;4998389;28;91281;-34
2022/03/25 11:51:56;;;;;;;44.10;27.75;;;16.00;58.30;;;;;;4997276;28;90213;-35
2022/03/25 11:54:37;;;;;;;39.90;27.55;;;16.10;60.20;;;;;;4998035;28;89170;-35
2022/03/25 11:57:05;;;;;;;37.53;28.05;;;16.40;62.40;;;;;;4995435;28;89119;-35
2022/03/25 11:59:47;;;;;;;35.08;25.52;;;16.10;58.50;;;;;;4996780;28;90322;-38
2022/03/25 12:02:33;;;;;;;46.97;28.52;;;16.40;59.30;;;;;;4995369;28;90558;-33
2022/03/25 12:05:00;;;;;;;42.95;27.45;;;16.60;59.50;;;;;;4996240;28;90563;-35
2022/03/25 12:07:26;;;;;;;39.97;27.45;;;16.00;57.10;;;;;;4978384;28;88273;-36
2022/03/25 12:09:52;;;;;;;44.83;27.25;;;16.10;59.00;;;;;;4977844;28;90347;-38
2022/03/25 12:12:18;;;;;;;39.97;27.30;;;16.20;58.90;;;;;;4997220;28;89895;-37
2022/03/25 12:15:10;;;;;;;47.33;29.40;;;16.40;60.00;;;;;;4995559;28;89920;-35
2022/03/25 12:17:37;;;;;;;46.17;27.75;;;16.70;60.90;;;;;;5044591;22;88849;-36
2022/03/25 12:20:04;;;;;;;42.75;28.05;;;16.60;60.50;;;;;;4995326;28;92295;-35
2022/03/25 12:22:33;;;;;;;39.55;27.75;;;16.70;58.80;;;;;;4995972;28;88575;-36
2022/03/25 12:25:13;;;;;;;40.78;27.42;;;16.50;58.10;;;;;;4995660;28;88884;-35
2022/03/25 12:27:39;;;;;;;42.70;27.30;;;16.70;59.10;;;;;;4996786;28;89783;-35
2022/03/25 12:30:06;;;;;;;38.92;25.88;;;16.80;58.00;;;;;;4999773;28;88988;-40
2022/03/25 12:32:35;;;;;;;43.80;28.48;;;16.90;59.00;;;;;;4999823;28;90998;-36
2022/03/25 12:35:08;;;;;;;45.00;29.10;;;16.70;57.60;;;;;;4999513;28;89168;-34
2022/03/25 12:37:50;;;;;;;38.63;27.33;;;17.00;60.20;;;;;;4999131;28;89550;-38
2022/03/25 12:40:28;;;;;;;34.95;25.05;;;16.80;57.80;;;;;;4998569;28;90044;-38
2022/03/25 12:42:57;;;;;;;38.47;27.85;;;16.90;57.30;;;;;;4998894;28;89698;-35